Etobicoke, Canada
Current Conditions -  °F | °C
As of 3:19 AM on Monday 24 Nov 2014 (Local Time) from CYYZ Reporting Station
Light Rain Light Rain  
Wind Chill: 43°   Ceiling: 500
Heat Index: 48°   Visibility: 6mi
Dew Point: 46°   Wind: 14mph
Humidity: 93%   Direction: 120°ESE
Pressure: 29.3"   Gusts: 22mph
Location:  43.64°N, 79.57°W
Report Text: CYYZ 240819Z 12012G19KT 6SM -RA BR BKN005 OVC020 09/08 A2930 RMK SF5SC3 PRESFR SLP925 DENSITY ALT 600FT
Loading
Personal Weather Stations






























Interactive Weather Map New forecast layout! Learn more

10-Day Weather Forecast

Advertisements
Track Severe Weather on mobile